Epe, Netherlands
Current Conditions -  °F | °C
As of 11:25 AM on Wednesday 22 Oct 2014 (Local Time) from EHDL Reporting Station
Few Clouds Few Clouds  
Wind Chill: 11°   Ceiling: Unl
Heat Index: 11°   Visibility: 6mi
Dew Point:   Wind: 15mph
Humidity: 76%   Direction: 290°WNW
Pressure: 30"   Gusts: NA
Location:  52.35°N, 5.98°E
Report Text: EHDL 220925Z AUTO 29013KT 9999 FEW054 11/07 Q1016 BLU
Loading
Personal Weather Stations






























Interactive Weather Map
Tropical Storm Tracking
New forecast layout! Learn more

10-Day Weather Forecast

Advertisements
Track Severe Weather on mobile